Time;durP1;ratioP1;P1;durP2;ratioP2;P2;SDS_P1;SDS_P2;PMS_P1;PMS_P2;Temp;Humidity;BMP_temperature;BMP_pressure;BME280_temperature;BME280_humidity;BME280_pressure;Samples;Min_cycle;Max_cycle;Signal;HPM_P1;HPM_P2
2021/08/01 00:01:33;;;;;;;10.63;7.93;;;;;;;21.79;100.00;96034.53;5066085;28;20197;-85
2021/08/01 00:04:00;;;;;;;8.70;6.97;;;;;;;21.89;100.00;96032.09;5065812;28;20287;-85
2021/08/01 00:06:28;;;;;;;9.53;8.07;;;;;;;21.87;100.00;96041.38;5065774;28;20254;-85
2021/08/01 00:08:55;;;;;;;9.87;6.43;;;;;;;21.84;100.00;96032.78;5065817;28;20194;-84
2021/08/01 00:11:23;;;;;;;7.13;6.43;;;;;;;21.97;100.00;96065.69;5066000;28;20193;-85
2021/08/01 00:13:50;;;;;;;10.10;7.47;;;;;;;21.84;100.00;96067.56;5065667;28;20197;-85
2021/08/01 00:16:19;;;;;;;8.47;7.63;;;;;;;21.54;100.00;96053.50;5065811;28;20197;-84
2021/08/01 00:18:46;;;;;;;8.63;7.67;;;;;;;21.69;100.00;96050.38;5065500;28;20190;-85
2021/08/01 00:21:13;;;;;;;8.73;6.83;;;;;;;21.91;100.00;96064.75;5066006;28;20201;-84
2021/08/01 00:23:40;;;;;;;7.80;7.00;;;;;;;21.87;100.00;96065.47;5065513;28;20293;-84
2021/08/01 00:26:08;;;;;;;7.57;6.87;;;;;;;21.70;100.00;96046.63;5065578;28;20236;-85
2021/08/01 00:28:35;;;;;;;8.23;6.83;;;;;;;21.36;100.00;96044.53;5065073;28;20225;-84
2021/08/01 00:31:02;;;;;;;7.70;6.30;;;;;;;21.52;100.00;96016.31;5065647;27;20194;-85
2021/08/01 00:33:31;;;;;;;13.43;7.73;;;;;;;21.33;100.00;96017.44;5065449;28;20250;-85
2021/08/01 00:35:58;;;;;;;8.23;7.43;;;;;;;21.50;100.00;96004.22;5065656;27;20278;-86
2021/08/01 00:38:26;;;;;;;8.23;7.53;;;;;;;21.04;100.00;95998.59;5065329;28;20751;-84
2021/08/01 00:40:53;;;;;;;9.77;8.07;;;;;;;20.72;100.00;95983.94;5065519;28;20202;-86
2021/08/01 00:43:20;;;;;;;10.07;7.30;;;;;;;20.67;100.00;96004.09;5065547;28;20254;-85
2021/08/01 00:45:48;;;;;;;8.90;7.87;;;;;;;20.81;100.00;95977.19;5065449;27;20753;-85
2021/08/01 00:48:15;;;;;;;7.57;6.77;;;;;;;20.88;100.00;95973.34;5064977;28;20222;-85
2021/08/01 00:50:44;;;;;;;10.27;7.20;;;;;;;20.82;100.00;95984.19;5065286;28;20250;-85
2021/08/01 00:53:11;;;;;;;8.67;7.60;;;;;;;21.09;100.00;95993.38;5065120;28;20200;-85
2021/08/01 00:55:40;;;;;;;9.60;7.20;;;;;;;20.88;100.00;95996.59;5065389;28;20233;-85
2021/08/01 00:58:08;;;;;;;8.37;6.93;;;;;;;20.49;100.00;95998.78;5062665;28;20229;-86
2021/08/01 01:00:52;;;;;;;7.83;7.13;;;;;;;20.69;100.00;95981.72;5051568;28;20198;-86
2021/08/01 01:03:24;;;;;;;12.43;8.70;;;;;;;20.94;100.00;95963.63;5051789;28;20594;-84
2021/08/01 01:05:59;;;;;;;8.63;7.60;;;;;;;20.96;100.00;95977.56;5051705;28;20186;-85
2021/08/01 01:08:34;;;;;;;7.83;7.03;;;;;;;21.00;100.00;95970.72;5051762;28;20212;-85
2021/08/01 01:11:05;;;;;;;8.53;7.13;;;;;;;21.06;100.00;95975.16;5051855;28;20568;-86
2021/08/01 01:13:36;;;;;;;7.73;7.13;;;;;;;20.98;100.00;96004.84;5051477;28;20186;-85
2021/08/01 01:16:04;;;;;;;11.43;8.77;;;;;;;20.49;100.00;95998.00;5051962;28;20231;-86
2021/08/01 01:18:34;;;;;;;9.53;8.57;;;;;;;20.61;100.00;95948.97;5051351;28;20194;-85
2021/08/01 01:21:28;;;;;;;7.33;6.70;;;;;;;20.93;100.00;95935.28;5052101;28;20626;-85
2021/08/01 01:24:01;;;;;;;8.83;8.03;;;;;;;21.03;100.00;95940.88;5051668;28;20198;-86
2021/08/01 01:26:34;;;;;;;8.47;7.73;;;;;;;21.04;100.00;95950.50;5051290;28;20202;-85
2021/08/01 01:29:15;;;;;;;8.10;7.30;;;;;;;21.08;100.00;95949.00;5051038;28;20297;-85
2021/08/01 01:32:00;;;;;;;7.20;6.60;;;;;;;21.22;100.00;95967.47;5051633;28;20182;-85
2021/08/01 01:34:34;;;;;;;12.53;9.00;;;;;;;20.85;100.00;95949.81;5051281;28;20222;-84
2021/08/01 01:37:04;;;;;;;7.53;6.93;;;;;;;21.15;100.00;95916.81;5051176;28;20189;-85
2021/08/01 01:39:33;;;;;;;7.70;7.00;;;;;;;21.22;100.00;95924.69;5050908;28;20247;-85
2021/08/01 01:42:02;;;;;;;10.40;7.37;;;;;;;21.36;100.00;95936.81;5051282;28;20236;-84
2021/08/01 01:44:30;;;;;;;8.10;7.33;;;;;;;21.36;100.00;95959.00;5050784;28;20205;-85
2021/08/01 01:46:58;;;;;;;11.00;7.40;;;;;;;21.18;100.00;95945.75;5051089;28;20198;-85
2021/08/01 01:49:26;;;;;;;12.77;7.67;;;;;;;21.10;100.00;95968.28;5051003;28;20658;-85
2021/08/01 01:51:55;;;;;;;10.53;7.33;;;;;;;21.29;100.00;95955.59;5051192;28;20640;-84
2021/08/01 01:54:25;;;;;;;8.70;7.07;;;;;;;21.29;100.00;95962.81;5050584;28;20202;-85
2021/08/01 01:56:54;;;;;;;9.77;6.70;;;;;;;21.47;100.00;95954.69;5050682;28;20217;-85
2021/08/01 01:59:22;;;;;;;12.50;8.40;;;;;;;21.27;100.00;95957.72;5050771;28;20198;-85
2021/08/01 02:01:49;;;;;;;8.47;7.13;;;;;;;21.21;100.00;95955.16;5050780;28;20205;-86
2021/08/01 02:04:17;;;;;;;7.67;6.90;;;;;;;21.13;100.00;95946.44;5050430;28;20198;-85
2021/08/01 02:06:44;;;;;;;9.07;7.77;;;;;;;21.23;100.00;95942.34;5050969;28;20223;-85
2021/08/01 02:09:19;;;;;;;8.70;7.87;;;;;;;21.20;100.00;95961.53;5050299;28;20251;-84
2021/08/01 02:11:57;;;;;;;9.43;8.60;;;;;;;21.13;100.00;95938.44;5049872;28;20265;-85
2021/08/01 02:14:30;;;;;;;8.43;7.63;;;;;;;21.21;100.00;95944.47;5050473;28;20186;-85
2021/08/01 02:17:06;;;;;;;10.77;8.43;;;;;;;21.20;100.00;95945.50;5050359;28;20190;-84
2021/08/01 02:19:35;;;;;;;10.30;8.43;;;;;;;21.19;100.00;95960.72;5050242;28;20186;-85
2021/08/01 02:22:04;;;;;;;8.37;7.53;;;;;;;21.13;100.00;95962.47;5050740;28;20640;-85
2021/08/01 02:24:33;;;;;;;8.30;7.07;;;;;;;21.23;100.00;95963.75;5050185;28;20669;-85
2021/08/01 02:27:06;;;;;;;10.73;7.53;;;;;;;21.11;100.00;95961.88;5050226;28;20201;-85
2021/08/01 02:29:34;;;;;;;14.47;8.20;;;;;;;21.19;100.00;95954.56;5050293;28;20688;-85
2021/08/01 02:32:02;;;;;;;10.67;8.03;;;;;;;21.07;100.00;95951.91;5050473;28;20639;-84
2021/08/01 02:34:31;;;;;;;9.70;8.63;;;;;;;20.90;100.00;95960.59;5050122;28;20263;-86
2021/08/01 02:36:59;;;;;;;10.07;9.17;;;;;;;21.00;100.00;95930.66;5050471;28;20233;-86
2021/08/01 02:39:27;;;;;;;8.83;8.07;;;;;;;21.00;100.00;95919.97;5050227;28;20231;-84
2021/08/01 02:41:56;;;;;;;9.50;7.90;;;;;;;21.15;100.00;95932.84;5049899;28;20237;-84
2021/08/01 02:44:28;;;;;;;9.17;7.63;;;;;;;21.01;100.00;95926.91;5049996;28;20225;-85
2021/08/01 02:46:58;;;;;;;10.77;7.80;;;;;;;20.98;100.00;95956.75;5049951;28;20182;-86
2021/08/01 02:49:31;;;;;;;10.57;8.30;;;;;;;20.69;100.00;95976.38;5049907;28;20257;-85
2021/08/01 02:52:03;;;;;;;9.70;8.37;;;;;;;20.46;100.00;95988.56;5050135;28;20226;-85
2021/08/01 02:54:32;;;;;;;12.90;8.83;;;;;;;20.25;100.00;95954.38;5050055;28;20194;-85
2021/08/01 02:57:03;;;;;;;10.90;8.30;;;;;;;20.16;100.00;95933.38;5049825;28;20236;-85
2021/08/01 02:59:33;;;;;;;9.47;7.67;;;;;;;20.28;100.00;95911.25;5049705;28;20730;-85
2021/08/01 03:02:02;;;;;;;8.93;8.20;;;;;;;20.40;100.00;95896.06;5049800;28;20186;-85
2021/08/01 03:04:29;;;;;;;9.67;8.47;;;;;;;20.60;100.00;95914.47;5049892;28;20641;-85
2021/08/01 03:06:58;;;;;;;9.63;7.60;;;;;;;20.62;100.00;95918.53;5049795;28;20734;-85
2021/08/01 03:09:26;;;;;;;10.57;8.53;;;;;;;20.64;100.00;95921.81;5050072;28;20309;-86
2021/08/01 03:11:53;;;;;;;9.23;8.40;;;;;;;20.72;100.00;95939.34;5050034;28;20615;-86
2021/08/01 03:14:20;;;;;;;10.80;9.70;;;;;;;20.82;100.00;95962.81;5049683;28;20262;-85
2021/08/01 03:16:49;;;;;;;11.73;10.53;;;;;;;20.84;100.00;95958.84;5049553;28;20262;-86
2021/08/01 03:19:16;;;;;;;10.87;9.70;;;;;;;20.88;100.00;95964.53;5049613;28;20198;-87
2021/08/01 03:21:44;;;;;;;11.23;8.60;;;;;;;20.95;100.00;95975.94;5047125;28;20292;-86
2021/08/01 03:24:11;;;;;;;10.40;9.00;;;;;;;20.99;100.00;95989.63;5049743;28;20250;-86
2021/08/01 03:26:38;;;;;;;12.97;8.80;;;;;;;21.00;100.00;95993.97;5069932;27;20280;-86
2021/08/01 03:29:06;;;;;;;13.93;9.13;;;;;;;21.00;100.00;96005.44;5154185;27;20213;-85
2021/08/01 03:31:33;;;;;;;10.30;8.87;;;;;;;21.00;100.00;96004.66;5153958;27;20190;-86
2021/08/01 03:34:02;;;;;;;12.10;9.17;;;;;;;21.03;100.00;96010.34;5154372;27;20194;-85
2021/08/01 03:36:29;;;;;;;10.73;8.20;;;;;;;21.06;100.00;96017.06;5154127;27;20242;-86
2021/08/01 03:38:56;;;;;;;9.20;7.73;;;;;;;21.11;100.00;96022.53;5154151;27;20247;-85
2021/08/01 03:41:23;;;;;;;9.70;7.67;;;;;;;21.06;100.00;96025.06;5154241;27;20229;-86
2021/08/01 03:43:50;;;;;;;10.17;8.43;;;;;;;21.03;100.00;96020.22;5154190;27;20186;-86
2021/08/01 03:46:18;;;;;;;9.27;8.37;;;;;;;20.99;100.00;96025.22;5154076;27;20244;-86
2021/08/01 03:48:45;;;;;;;12.83;8.73;;;;;;;21.02;100.00;96038.06;5153981;27;20308;-85
2021/08/01 03:51:14;;;;;;;9.17;8.27;;;;;;;21.10;100.00;96043.09;5154008;27;20253;-80
2021/08/01 03:53:41;;;;;;;8.77;7.77;;;;;;;21.19;100.00;96042.75;5153613;27;20186;-80
2021/08/01 03:56:08;;;;;;;11.03;8.03;;;;;;;21.17;100.00;96052.88;5153685;27;20193;-80
2021/08/01 03:58:41;;;;;;;9.93;7.80;;;;;;;21.12;100.00;96041.00;5156465;27;20701;-80
2021/08/01 04:01:08;;;;;;;9.20;8.23;;;;;;;21.14;100.00;96049.63;5154400;27;20284;-81
2021/08/01 04:03:35;;;;;;;11.40;8.57;;;;;;;21.18;100.00;96049.16;5153255;27;20190;-81
2021/08/01 04:06:06;;;;;;;9.27;8.13;;;;;;;21.26;100.00;96052.28;5153409;27;20202;-80
2021/08/01 04:08:35;;;;;;;9.23;8.37;;;;;;;21.25;100.00;96055.22;5153110;27;20202;-81
2021/08/01 04:11:04;;;;;;;9.17;8.17;;;;;;;21.23;100.00;96063.44;5153438;27;20197;-80
2021/08/01 04:13:32;;;;;;;15.90;10.07;;;;;;;21.25;100.00;96072.06;5153243;27;20228;-80
2021/08/01 04:15:59;;;;;;;8.63;7.83;;;;;;;21.25;100.00;96065.91;5153233;27;20284;-80
2021/08/01 04:18:29;;;;;;;13.43;9.13;;;;;;;21.25;100.00;96077.41;5153034;27;20196;-80
2021/08/01 04:20:56;;;;;;;10.90;8.10;;;;;;;21.26;100.00;96086.22;5153242;27;20285;-81
2021/08/01 04:23:23;;;;;;;11.17;8.97;;;;;;;21.24;100.00;96085.66;5152784;27;20254;-79
2021/08/01 04:25:52;;;;;;;11.77;8.83;;;;;;;21.22;100.00;96085.06;5153536;27;20276;-80
2021/08/01 04:28:40;;;;;;;11.30;8.30;;;;;;;21.21;100.00;96078.09;5156996;27;20222;-79
2021/08/01 04:31:07;;;;;;;13.43;9.20;;;;;;;21.22;100.00;96072.50;5152907;27;20182;-81
2021/08/01 04:33:36;;;;;;;11.40;9.30;;;;;;;21.27;100.00;96091.34;5153587;27;20194;-81
2021/08/01 04:36:03;;;;;;;11.93;8.90;;;;;;;21.38;100.00;96113.03;5157075;27;20198;-81
2021/08/01 04:38:31;;;;;;;12.17;9.27;;;;;;;21.48;100.00;96130.13;5157132;27;20273;-80
2021/08/01 04:40:59;;;;;;;11.33;10.23;;;;;;;21.54;100.00;96149.75;5156927;27;20200;-80
2021/08/01 04:43:27;;;;;;;10.37;9.47;;;;;;;21.57;100.00;96155.47;5156523;27;20200;-81
2021/08/01 04:45:54;;;;;;;11.37;10.17;;;;;;;21.59;100.00;96155.25;5156850;27;20261;-81
2021/08/01 04:48:21;;;;;;;10.83;9.83;;;;;;;21.60;100.00;96157.69;5156509;27;20270;-80
2021/08/01 04:50:48;;;;;;;11.53;9.90;;;;;;;21.67;100.00;96151.41;5157037;27;20206;-80
2021/08/01 04:53:16;;;;;;;12.57;9.90;;;;;;;21.74;100.00;96152.94;5156859;27;20201;-80
2021/08/01 04:55:43;;;;;;;11.13;9.57;;;;;;;21.77;100.00;96154.34;5156450;27;20263;-80
2021/08/01 04:58:12;;;;;;;10.43;9.50;;;;;;;21.78;100.00;96153.28;5156197;27;20709;-80
2021/08/01 05:00:39;;;;;;;10.27;9.37;;;;;;;21.79;100.00;96161.09;5156534;27;20254;-79
2021/08/01 05:03:06;;;;;;;14.23;9.80;;;;;;;21.91;100.00;96169.09;5156097;27;20194;-79
2021/08/01 05:05:37;;;;;;;10.27;9.23;;;;;;;21.97;100.00;96173.53;5156521;27;20190;-80
2021/08/01 05:08:05;;;;;;;12.37;9.97;;;;;;;21.96;100.00;96171.91;5156470;27;20182;-80
2021/08/01 05:10:34;;;;;;;10.77;9.10;;;;;;;21.99;100.00;96171.44;5155838;27;20197;-80
2021/08/01 05:13:01;;;;;;;10.00;9.00;;;;;;;22.02;100.00;96168.28;5156068;27;20237;-81
2021/08/01 05:15:30;;;;;;;10.73;9.67;;;;;;;22.01;100.00;96177.38;5374675;22;20240;-80
2021/08/01 05:17:57;;;;;;;10.13;8.83;;;;;;;22.09;100.00;96177.00;4952499;28;20297;-80
2021/08/01 05:20:24;;;;;;;10.50;9.43;;;;;;;22.15;100.00;96182.53;5235623;22;20977;-80
2021/08/01 05:22:51;;;;;;;9.60;8.70;;;;;;;22.19;100.00;96179.13;5087067;28;20204;-81
2021/08/01 05:25:18;;;;;;;10.67;9.63;;;;;;;22.22;100.00;96184.03;5094136;28;20283;-81
2021/08/01 05:27:45;;;;;;;13.37;9.53;;;;;;;22.30;100.00;96180.16;5094000;28;20595;-81
2021/08/01 05:30:13;;;;;;;11.50;10.30;;;;;;;22.30;100.00;96185.53;5094173;28;20224;-81
2021/08/01 05:32:42;;;;;;;11.33;9.60;;;;;;;22.34;100.00;96185.88;5093538;28;20201;-81
2021/08/01 05:35:10;;;;;;;11.60;10.30;;;;;;;22.42;100.00;96185.53;5093946;28;20192;-81
2021/08/01 05:37:37;;;;;;;11.10;8.60;;;;;;;22.47;100.00;96191.78;5093601;28;20196;-81
2021/08/01 05:40:07;;;;;;;16.53;9.70;;;;;;;22.53;100.00;96198.06;5094250;28;20189;-81
2021/08/01 05:42:34;;;;;;;13.40;10.13;;;;;;;22.63;100.00;96173.38;5093727;28;20180;-81
2021/08/01 05:45:02;;;;;;;11.83;10.33;;;;;;;22.67;100.00;96171.84;5093508;28;20203;-81
2021/08/01 05:47:29;;;;;;;12.50;10.00;;;;;;;22.74;100.00;96172.53;5093642;28;20191;-81
2021/08/01 05:49:58;;;;;;;12.50;10.57;;;;;;;22.91;100.00;96178.75;5093621;28;20220;-81
2021/08/01 05:52:25;;;;;;;12.73;10.30;;;;;;;23.00;100.00;96189.97;5093267;28;20287;-80
2021/08/01 05:54:54;;;;;;;9.90;9.00;;;;;;;23.15;100.00;96184.06;5093861;28;20192;-81
2021/08/01 05:57:21;;;;;;;10.63;9.63;;;;;;;23.29;100.00;96182.72;5093742;28;20618;-81
2021/08/01 05:59:48;;;;;;;11.07;10.03;;;;;;;23.46;100.00;96191.59;5093487;28;20249;-81
2021/08/01 06:02:16;;;;;;;12.07;10.87;;;;;;;23.63;100.00;96201.53;5093029;28;20200;-81
2021/08/01 06:04:43;;;;;;;12.33;10.23;;;;;;;23.73;100.00;96207.13;5093546;28;20636;-80
2021/08/01 06:07:12;;;;;;;17.63;11.30;;;;;;;23.86;100.00;96197.91;5093244;28;20279;-79
2021/08/01 06:09:40;;;;;;;12.03;9.17;;;;;;;24.01;100.00;96198.16;5073192;28;20664;-78
2021/08/01 06:12:11;;;;;;;13.13;10.47;;;;;;;24.15;100.00;96193.25;5073146;28;20201;-78
2021/08/01 06:14:39;;;;;;;13.50;9.83;;;;;;;24.25;100.00;96204.16;5073422;28;20181;-78
2021/08/01 06:17:06;;;;;;;11.20;10.10;;;;;;;24.39;100.00;96208.13;5072904;28;20729;-78
2021/08/01 06:19:33;;;;;;;11.50;9.13;;;;;;;24.53;100.00;96216.66;5072803;28;20197;-78
2021/08/01 06:22:00;;;;;;;10.50;9.43;;;;;;;24.58;100.00;96216.72;5072605;28;20601;-78
2021/08/01 06:24:29;;;;;;;16.90;10.27;;;;;;;24.71;100.00;96226.31;5073225;28;20197;-78
2021/08/01 06:26:56;;;;;;;11.07;9.83;;;;;;;24.88;100.00;96220.88;5072066;28;20673;-78
2021/08/01 06:29:24;;;;;;;10.47;9.50;;;;;;;25.05;100.00;96221.63;5072599;28;20228;-78
2021/08/01 06:31:53;;;;;;;13.53;9.33;;;;;;;25.18;100.00;96225.81;5069805;28;20197;-78
2021/08/01 06:34:20;;;;;;;12.33;10.17;;;;;;;25.32;100.00;96221.69;5069974;28;20204;-77
2021/08/01 06:36:47;;;;;;;14.07;9.00;;;;;;;25.47;100.00;96222.91;5071443;28;20197;-78
2021/08/01 06:39:14;;;;;;;15.00;9.00;;;;;;;25.62;100.00;96226.53;5072606;28;20196;-78
2021/08/01 06:41:43;;;;;;;13.33;9.80;;;;;;;25.79;100.00;96218.38;5072383;28;20201;-78
2021/08/01 06:44:10;;;;;;;12.37;9.10;;;;;;;25.87;100.00;96218.97;5072597;28;20203;-78
2021/08/01 06:46:38;;;;;;;10.00;9.03;;;;;;;25.99;100.00;96225.00;5072428;28;20588;-78
2021/08/01 06:49:05;;;;;;;12.20;8.57;;;;;;;26.09;100.00;96225.91;5072527;28;20771;-78
2021/08/01 06:51:32;;;;;;;13.57;9.13;;;;;;;26.28;100.00;96220.09;5072344;28;20284;-77
2021/08/01 06:53:59;;;;;;;11.60;9.27;;;;;;;26.49;100.00;96221.06;5072448;28;20732;-77
2021/08/01 06:56:27;;;;;;;10.98;9.57;;;;;;;26.66;100.00;96224.38;5071813;28;20199;-78
2021/08/01 06:58:55;;;;;;;11.27;9.13;;;;;;;26.75;100.00;96219.31;5072154;28;20193;-78
2021/08/01 07:01:23;;;;;;;10.23;9.27;;;;;;;26.99;100.00;96225.91;5072170;28;20193;-78
2021/08/01 07:03:50;;;;;;;11.38;8.80;;;;;;;27.13;100.00;96228.13;5072288;28;20197;-78
2021/08/01 07:06:17;;;;;;;10.80;9.32;;;;;;;27.32;100.00;96225.75;5072007;28;20207;-78
2021/08/01 07:08:44;;;;;;;10.52;8.07;;;;;;;27.43;100.00;96230.09;5072183;28;20280;-78
2021/08/01 07:11:12;;;;;;;9.73;8.82;;;;;;;27.57;100.00;96228.50;5071965;28;20685;-78
2021/08/01 07:13:41;;;;;;;12.40;8.85;;;;;;;27.64;100.00;96236.34;5072211;28;20665;-78
2021/08/01 07:16:09;;;;;;;10.52;9.32;;;;;;;27.86;100.00;96230.75;5072359;28;20208;-78
2021/08/01 07:18:36;;;;;;;9.48;8.45;;;;;;;28.17;100.00;96226.94;5071671;28;20196;-78
2021/08/01 07:21:04;;;;;;;11.95;8.07;;;;;;;28.20;100.00;96239.91;5071587;28;20236;-78
2021/08/01 07:23:31;;;;;;;10.52;8.85;;;;;;;28.35;100.00;96243.69;5071970;28;20251;-78
2021/08/01 07:25:58;;;;;;;9.75;8.50;;;;;;;28.44;100.00;96242.91;5071564;28;20287;-78
2021/08/01 07:28:25;;;;;;;8.98;8.18;;;;;;;28.47;100.00;96252.34;5072197;28;20586;-78
2021/08/01 07:30:53;;;;;;;14.35;8.35;;;;;;;28.56;100.00;96245.31;5071910;28;20303;-78
2021/08/01 07:33:22;;;;;;;9.75;8.75;;;;;;;28.73;100.00;96253.09;5072011;28;20233;-78
2021/08/01 07:35:49;;;;;;;67.10;16.92;;;;;;;28.91;100.00;96263.31;5071709;28;20232;-78
2021/08/01 07:38:16;;;;;;;10.80;8.48;;;;;;;29.09;100.00;96251.09;5072228;28;20197;-79
2021/08/01 07:40:43;;;;;;;10.40;8.48;;;;;;;29.21;100.00;96261.63;5071615;28;20588;-78
2021/08/01 07:43:11;;;;;;;8.40;7.57;;;;;;;29.28;100.00;96262.13;5071758;28;20291;-78
2021/08/01 07:45:38;;;;;;;10.52;8.13;;;;;;;29.34;100.00;96255.63;5071395;28;20200;-78
2021/08/01 07:48:05;;;;;;;13.52;8.63;;;;;;;29.66;100.00;96256.28;5071708;28;20244;-78
2021/08/01 07:50:34;;;;;;;9.18;8.25;;;;;;;29.65;100.00;96254.66;5071932;28;20235;-78
2021/08/01 07:53:01;;;;;;;10.93;8.25;;;;;;;29.88;100.00;96258.56;5071599;28;20201;-78
2021/08/01 07:55:29;;;;;;;12.82;9.70;;;;;;;29.90;100.00;96254.50;5071700;28;20215;-78
2021/08/01 07:57:57;;;;;;;10.40;8.43;;;;;;;30.14;100.00;96259.19;5071518;28;20200;-78
2021/08/01 08:00:24;;;;;;;10.02;8.77;;;;;;;30.31;100.00;96254.19;5077890;28;20204;-78
2021/08/01 08:02:51;;;;;;;10.27;7.90;;;;;;;30.58;100.00;96252.84;5091357;28;20204;-79
2021/08/01 08:05:19;;;;;;;12.05;8.50;;;;;;;30.74;100.00;96259.72;5091799;28;20599;-78
2021/08/01 08:07:47;;;;;;;10.50;8.63;;;;;;;30.77;100.00;96259.19;5091422;28;20759;-78
2021/08/01 08:10:15;;;;;;;12.52;8.75;;;;;;;30.84;100.00;96256.16;5095296;28;20607;-79
2021/08/01 08:12:42;;;;;;;9.85;8.02;;;;;;;31.04;100.00;96250.47;5095141;28;20196;-78
2021/08/01 08:15:12;;;;;;;20.50;9.18;;;;;;;31.18;100.00;96253.31;5095360;28;20231;-82
2021/08/01 08:17:39;;;;;;;9.18;7.85;;;;;;;31.46;100.00;96238.84;5095668;28;20228;-82
2021/08/01 08:20:08;;;;;;;9.43;8.38;;;;;;;31.69;100.00;96241.75;5095533;28;20682;-84
2021/08/01 08:22:36;;;;;;;16.08;9.13;;;;;;;31.63;100.00;96248.38;5094928;28;20215;-83
2021/08/01 08:25:06;;;;;;;10.70;9.00;;;;;;;31.80;100.00;96250.56;5095327;28;20228;-82
2021/08/01 08:27:34;;;;;;;13.25;8.95;;;;;;;32.25;100.00;96257.22;5095035;28;20189;-82
2021/08/01 08:30:01;;;;;;;10.25;8.93;;;;;;;32.38;100.00;96251.00;5094360;28;20230;-84
2021/08/01 08:32:30;;;;;;;14.52;8.88;;;;;;;32.76;100.00;96259.06;5094646;28;20204;-80
2021/08/01 08:34:57;;;;;;;12.48;9.45;;;;;;;32.81;100.00;96267.16;5095355;28;20203;-81
2021/08/01 08:37:25;;;;;;;12.70;8.45;;;;;;;32.47;100.00;96263.97;5095158;28;20714;-81
2021/08/01 08:39:52;;;;;;;10.05;9.00;;;;;;;32.62;100.00;96260.97;5094999;28;20188;-80
2021/08/01 08:42:22;;;;;;;10.10;8.38;;;;;;;32.68;100.00;96262.50;5094426;28;20282;-81
2021/08/01 08:44:50;;;;;;;9.50;8.40;;;;;;;32.60;100.00;96265.91;5094930;28;20180;-81
2021/08/01 08:47:19;;;;;;;10.55;9.60;;;;;;;32.88;100.00;96262.09;5095031;28;20277;-81
2021/08/01 08:49:48;;;;;;;10.48;8.77;;;;;;;33.25;100.00;96254.84;5094747;28;20224;-82
2021/08/01 08:52:17;;;;;;;12.38;11.10;;;;;;;32.84;100.00;96254.84;5094409;28;20196;-80
2021/08/01 08:54:47;;;;;;;14.85;10.00;;;;;;;32.88;100.00;96262.09;5094606;28;20196;-81
2021/08/01 08:57:21;;;;;;;9.98;8.98;;;;;;;32.92;100.00;96252.22;5094661;28;20199;-80
2021/08/01 08:59:54;;;;;;;9.88;8.57;;;;;;;33.08;100.00;96262.84;5095205;28;20176;-80
2021/08/01 09:02:22;;;;;;;12.60;9.13;;;;;;;33.15;100.00;96260.53;5094219;28;20242;-81
2021/08/01 09:04:50;;;;;;;15.63;9.65;;;;;;;33.07;100.00;96250.34;5094689;28;20286;-80
2021/08/01 09:07:17;;;;;;;18.67;9.60;;;;;;;33.16;100.00;96255.91;5094487;28;20204;-79
2021/08/01 09:09:45;;;;;;;12.05;8.70;;;;;;;33.23;100.00;96248.13;5094777;28;20222;-79
2021/08/01 09:12:12;;;;;;;10.73;9.63;;;;;;;33.10;100.00;96250.53;5094358;28;20598;-80
2021/08/01 09:14:41;;;;;;;10.50;9.50;;;;;;;33.10;100.00;96247.00;5094560;28;20193;-80
2021/08/01 09:17:08;;;;;;;13.95;9.63;;;;;;;33.06;100.00;96240.56;5094335;28;20200;-80
2021/08/01 09:19:39;;;;;;;12.90;9.32;;;;;;;33.25;100.00;96243.97;5094055;28;20668;-80
2021/08/01 09:22:15;;;;;;;13.70;9.55;;;;;;;33.29;100.00;96247.72;5093143;28;20614;-79
2021/08/01 09:24:44;;;;;;;13.73;9.55;;;;;;;33.36;100.00;96245.38;5094281;28;20196;-79
2021/08/01 09:27:28;;;;;;;10.65;8.52;;;;;;;33.46;100.00;96238.91;5093887;28;20668;-79
2021/08/01 09:29:58;;;;;;;13.43;9.25;;;;;;;33.32;100.00;96232.66;5094558;28;20560;-79
2021/08/01 09:32:26;;;;;;;13.73;9.27;;;;;;;33.28;100.00;96239.81;5093571;28;20193;-78
2021/08/01 09:34:53;;;;;;;11.43;9.60;;;;;;;33.43;100.00;96238.69;5094427;28;20204;-78
2021/08/01 09:37:32;;;;;;;9.98;9.00;;;;;;;33.63;100.00;96238.25;5093878;28;20692;-78
2021/08/01 09:40:08;;;;;;;12.38;9.63;;;;;;;33.65;100.00;96232.53;5094324;28;20354;-79
2021/08/01 09:42:43;;;;;;;11.20;9.35;;;;;;;33.67;100.00;96228.38;5093829;28;20284;-79
2021/08/01 09:45:19;;;;;;;11.70;10.02;;;;;;;33.83;100.00;96243.25;5094033;28;20321;-78
2021/08/01 09:47:48;;;;;;;12.38;10.27;;;;;;;33.72;100.00;96244.59;5093649;28;20188;-78
2021/08/01 09:50:17;;;;;;;11.82;10.50;;;;;;;33.66;100.00;96228.69;5092879;28;20220;-78
2021/08/01 09:52:44;;;;;;;12.25;10.13;;;;;;;33.80;100.00;96221.25;5093585;28;20703;-78
2021/08/01 09:55:20;;;;;;;15.70;14.05;;;;;;;33.74;100.00;96223.31;5093464;28;20192;-78
2021/08/01 09:57:52;;;;;;;17.90;16.00;;;;;;;33.70;100.00;96224.22;5074707;28;20288;-78
2021/08/01 10:00:23;;;;;;;13.55;12.25;;;;;;;33.83;100.00;96215.19;5073384;28;20277;-78
2021/08/01 10:02:50;;;;;;;13.23;11.88;;;;;;;33.96;100.00;96227.16;5073042;28;20246;-78
2021/08/01 10:05:19;;;;;;;13.20;10.80;;;;;;;34.16;100.00;96232.16;5073170;28;20229;-78
2021/08/01 10:07:49;;;;;;;14.20;10.23;;;;;;;33.78;100.00;96227.03;5073360;28;20201;-78
2021/08/01 10:10:18;;;;;;;13.80;9.82;;;;;;;33.57;100.00;96232.13;5073191;28;20307;-78
2021/08/01 10:12:46;;;;;;;11.30;9.85;;;;;;;33.78;100.00;96229.75;5073239;28;20281;-79
2021/08/01 10:15:14;;;;;;;12.48;10.95;;;;;;;33.64;100.00;96223.53;5072950;28;20218;-78
2021/08/01 10:17:43;;;;;;;11.52;9.95;;;;;;;33.81;100.00;96214.72;5073277;28;20301;-78
2021/08/01 10:20:11;;;;;;;11.77;9.98;;;;;;;33.70;100.00;96214.13;5073126;28;20197;-78
2021/08/01 10:22:40;;;;;;;12.32;10.68;;;;;;;33.69;100.00;96208.97;5073279;28;20196;-78
2021/08/01 10:25:10;;;;;;;10.18;8.95;;;;;;;33.72;100.00;96203.72;5072921;28;20201;-78
2021/08/01 10:27:44;;;;;;;12.00;10.00;;;;;;;33.94;100.00;96213.00;5072633;28;20224;-78
2021/08/01 10:30:15;;;;;;;13.93;9.60;;;;;;;33.98;100.00;96214.84;5072920;28;20201;-79
2021/08/01 10:32:46;;;;;;;13.25;10.60;;;;;;;33.85;100.00;96219.22;5071953;28;20259;-79
2021/08/01 10:35:17;;;;;;;13.48;9.30;;;;;;;33.94;100.00;96211.09;5072638;28;20284;-78
2021/08/01 10:37:53;;;;;;;10.88;9.75;;;;;;;33.96;100.00;96213.53;5072657;28;20193;-78
2021/08/01 10:40:22;;;;;;;10.57;9.63;;;;;;;33.97;100.00;96204.22;5073065;28;20181;-79
2021/08/01 10:42:52;;;;;;;14.40;9.75;;;;;;;34.17;100.00;96214.66;5078649;28;20664;-80
2021/08/01 10:45:19;;;;;;;15.52;9.57;;;;;;;33.99;100.00;96194.63;5092874;28;20580;-80
2021/08/01 10:47:51;;;;;;;11.40;10.25;;;;;;;33.83;100.00;96196.91;5092467;28;20730;-80
2021/08/01 10:50:21;;;;;;;16.05;12.00;;;;;;;34.05;100.00;96198.03;5092616;28;20242;-80
2021/08/01 10:52:48;;;;;;;21.63;15.77;;;;;;;34.25;100.00;96192.06;5092250;28;20231;-80
2021/08/01 10:55:23;;;;;;;23.10;21.23;;;;;;;34.39;100.00;96193.91;5092892;28;20223;-80
2021/08/01 10:58:12;;;;;;;14.40;10.07;;;;;;;34.47;100.00;96195.91;5092157;28;20196;-79
2021/08/01 11:00:59;;;;;;;11.00;9.93;;;;;;;34.40;100.00;96196.34;5092373;28;20192;-80
2021/08/01 11:03:29;;;;;;;12.88;9.15;;;;;;;34.24;100.00;96184.22;5092772;28;20196;-79
2021/08/01 11:05:56;;;;;;;11.50;9.45;;;;;;;34.28;100.00;96190.66;5092452;28;20207;-79
2021/08/01 11:08:24;;;;;;;10.50;9.45;;;;;;;34.31;100.00;96185.38;5092438;28;20243;-79
2021/08/01 11:11:13;;;;;;;14.45;9.57;;;;;;;34.05;100.00;96178.94;5092182;28;20708;-79
2021/08/01 11:13:43;;;;;;;12.45;11.13;;;;;;;34.16;100.00;96174.88;5092218;28;20247;-79
2021/08/01 11:16:14;;;;;;;9.10;8.20;;;;;;;34.15;100.00;96173.25;5090534;28;20196;-79
2021/08/01 11:18:45;;;;;;;10.27;9.07;;;;;;;34.34;100.00;96169.50;5091557;28;20267;-79
2021/08/01 11:21:13;;;;;;;9.73;8.73;;;;;;;34.29;100.00;96173.16;5091274;28;20236;-79
2021/08/01 11:24:07;;;;;;;10.27;9.32;;;;;;;34.39;100.00;96172.09;5091201;28;20287;-79
2021/08/01 11:26:35;;;;;;;14.85;9.27;;;;;;;34.57;100.00;96175.72;5091140;28;20196;-79
2021/08/01 11:29:12;;;;;;;12.15;8.52;;;;;;;34.66;100.00;96168.38;5090707;28;20196;-79